sensor_id;sensor_type;location;lat;lon;timestamp;P1;durP1;ratioP1;P2;durP2;ratioP2
26622;SDS011;14254;50.968;5.366;2023-04-15T00:00:27;13.32;;;6.38;;
26622;SDS011;14254;50.968;5.366;2023-04-15T00:02:53;13.90;;;6.38;;
26622;SDS011;14254;50.968;5.366;2023-04-15T00:05:19;9.98;;;5.57;;
26622;SDS011;14254;50.968;5.366;2023-04-15T00:07:45;12.13;;;5.78;;
26622;SDS011;14254;50.968;5.366;2023-04-15T00:10:11;12.68;;;6.22;;
26622;SDS011;14254;50.968;5.366;2023-04-15T00:12:38;11.13;;;5.57;;
26622;SDS011;14254;50.968;5.366;2023-04-15T00:15:05;11.40;;;5.38;;
26622;SDS011;14254;50.968;5.366;2023-04-15T00:17:32;10.70;;;5.03;;
26622;SDS011;14254;50.968;5.366;2023-04-15T00:19:58;13.07;;;5.40;;
26622;SDS011;14254;50.968;5.366;2023-04-15T00:22:24;9.43;;;5.40;;
26622;SDS011;14254;50.968;5.366;2023-04-15T00:24:51;11.43;;;5.07;;
26622;SDS011;14254;50.968;5.366;2023-04-15T00:27:18;9.85;;;4.72;;
26622;SDS011;14254;50.968;5.366;2023-04-15T00:29:44;13.15;;;4.80;;
26622;SDS011;14254;50.968;5.366;2023-04-15T00:32:10;8.20;;;4.78;;
26622;SDS011;14254;50.968;5.366;2023-04-15T00:34:35;15.68;;;5.43;;
26622;SDS011;14254;50.968;5.366;2023-04-15T00:37:01;9.65;;;5.43;;
26622;SDS011;14254;50.968;5.366;2023-04-15T00:39:27;9.68;;;4.82;;
26622;SDS011;14254;50.968;5.366;2023-04-15T00:41:52;11.60;;;5.20;;
26622;SDS011;14254;50.968;5.366;2023-04-15T00:44:19;7.70;;;4.97;;
26622;SDS011;14254;50.968;5.366;2023-04-15T00:46:45;9.10;;;4.22;;
26622;SDS011;14254;50.968;5.366;2023-04-15T00:49:12;13.98;;;4.55;;
26622;SDS011;14254;50.968;5.366;2023-04-15T00:51:38;13.57;;;4.93;;
26622;SDS011;14254;50.968;5.366;2023-04-15T00:54:04;11.65;;;4.35;;
26622;SDS011;14254;50.968;5.366;2023-04-15T00:56:35;6.03;;;3.90;;
26622;SDS011;14254;50.968;5.366;2023-04-15T00:59:03;7.97;;;4.28;;
26622;SDS011;14254;50.968;5.366;2023-04-15T01:01:30;14.50;;;4.75;;
26622;SDS011;14254;50.968;5.366;2023-04-15T01:03:58;13.98;;;4.47;;
26622;SDS011;14254;50.968;5.366;2023-04-15T01:06:23;12.45;;;4.45;;
26622;SDS011;14254;50.968;5.366;2023-04-15T01:08:51;8.05;;;3.97;;
26622;SDS011;14254;50.968;5.366;2023-04-15T01:11:18;10.05;;;4.13;;
26622;SDS011;14254;50.968;5.366;2023-04-15T01:13:44;13.05;;;4.80;;
26622;SDS011;14254;50.968;5.366;2023-04-15T01:16:11;11.57;;;4.03;;
26622;SDS011;14254;50.968;5.366;2023-04-15T01:18:37;9.98;;;3.97;;
26622;SDS011;14254;50.968;5.366;2023-04-15T01:21:04;8.98;;;4.22;;
26622;SDS011;14254;50.968;5.366;2023-04-15T01:23:31;7.07;;;4.32;;
26622;SDS011;14254;50.968;5.366;2023-04-15T01:25:58;11.48;;;4.15;;
26622;SDS011;14254;50.968;5.366;2023-04-15T01:28:24;10.38;;;3.50;;
26622;SDS011;14254;50.968;5.366;2023-04-15T01:30:50;10.52;;;4.28;;
26622;SDS011;14254;50.968;5.366;2023-04-15T01:33:29;10.57;;;4.13;;
26622;SDS011;14254;50.968;5.366;2023-04-15T01:35:55;8.75;;;3.67;;
26622;SDS011;14254;50.968;5.366;2023-04-15T01:38:21;9.38;;;4.00;;
26622;SDS011;14254;50.968;5.366;2023-04-15T01:40:47;8.57;;;3.25;;
26622;SDS011;14254;50.968;5.366;2023-04-15T01:43:12;10.60;;;4.15;;
26622;SDS011;14254;50.968;5.366;2023-04-15T01:45:39;7.95;;;3.95;;
26622;SDS011;14254;50.968;5.366;2023-04-15T01:48:05;6.60;;;3.63;;
26622;SDS011;14254;50.968;5.366;2023-04-15T01:50:32;8.27;;;4.22;;
26622;SDS011;14254;50.968;5.366;2023-04-15T01:52:58;9.43;;;4.05;;
26622;SDS011;14254;50.968;5.366;2023-04-15T01:55:23;12.13;;;3.97;;
26622;SDS011;14254;50.968;5.366;2023-04-15T01:57:49;9.60;;;5.40;;
26622;SDS011;14254;50.968;5.366;2023-04-15T02:00:15;8.95;;;3.83;;
26622;SDS011;14254;50.968;5.366;2023-04-15T02:02:41;8.00;;;3.90;;
26622;SDS011;14254;50.968;5.366;2023-04-15T02:05:07;7.03;;;4.90;;
26622;SDS011;14254;50.968;5.366;2023-04-15T02:07:33;8.52;;;4.57;;
26622;SDS011;14254;50.968;5.366;2023-04-15T02:09:59;9.02;;;4.20;;
26622;SDS011;14254;50.968;5.366;2023-04-15T02:12:25;8.38;;;3.50;;
26622;SDS011;14254;50.968;5.366;2023-04-15T02:14:51;11.27;;;3.65;;
26622;SDS011;14254;50.968;5.366;2023-04-15T02:17:17;11.38;;;3.83;;
26622;SDS011;14254;50.968;5.366;2023-04-15T02:19:43;8.15;;;3.90;;
26622;SDS011;14254;50.968;5.366;2023-04-15T02:22:08;10.23;;;3.85;;
26622;SDS011;14254;50.968;5.366;2023-04-15T02:24:37;9.48;;;3.58;;
26622;SDS011;14254;50.968;5.366;2023-04-15T02:27:03;8.18;;;3.95;;
26622;SDS011;14254;50.968;5.366;2023-04-15T02:29:30;10.52;;;3.83;;
26622;SDS011;14254;50.968;5.366;2023-04-15T02:31:56;8.73;;;4.03;;
26622;SDS011;14254;50.968;5.366;2023-04-15T02:34:22;8.63;;;3.95;;
26622;SDS011;14254;50.968;5.366;2023-04-15T02:36:47;9.20;;;4.75;;
26622;SDS011;14254;50.968;5.366;2023-04-15T02:39:13;4.90;;;3.13;;
26622;SDS011;14254;50.968;5.366;2023-04-15T02:41:41;6.03;;;3.63;;
26622;SDS011;14254;50.968;5.366;2023-04-15T02:44:07;12.90;;;3.47;;
26622;SDS011;14254;50.968;5.366;2023-04-15T02:46:33;9.68;;;3.90;;
26622;SDS011;14254;50.968;5.366;2023-04-15T02:48:59;9.13;;;3.70;;
26622;SDS011;14254;50.968;5.366;2023-04-15T02:51:28;11.88;;;4.15;;
26622;SDS011;14254;50.968;5.366;2023-04-15T02:53:56;9.95;;;3.53;;
26622;SDS011;14254;50.968;5.366;2023-04-15T02:56:22;6.82;;;3.75;;
26622;SDS011;14254;50.968;5.366;2023-04-15T02:58:48;9.00;;;3.92;;
26622;SDS011;14254;50.968;5.366;2023-04-15T03:01:14;6.43;;;3.90;;
26622;SDS011;14254;50.968;5.366;2023-04-15T03:03:40;6.07;;;3.45;;
26622;SDS011;14254;50.968;5.366;2023-04-15T03:06:06;10.88;;;4.38;;
26622;SDS011;14254;50.968;5.366;2023-04-15T03:08:32;5.40;;;3.53;;
26622;SDS011;14254;50.968;5.366;2023-04-15T03:10:58;9.45;;;4.10;;
26622;SDS011;14254;50.968;5.366;2023-04-15T03:13:26;5.88;;;3.55;;
26622;SDS011;14254;50.968;5.366;2023-04-15T03:15:52;7.15;;;3.70;;
26622;SDS011;14254;50.968;5.366;2023-04-15T03:18:17;8.13;;;4.43;;
26622;SDS011;14254;50.968;5.366;2023-04-15T03:20:43;7.05;;;3.55;;
26622;SDS011;14254;50.968;5.366;2023-04-15T03:23:09;7.97;;;3.67;;
26622;SDS011;14254;50.968;5.366;2023-04-15T03:25:35;5.35;;;3.47;;
26622;SDS011;14254;50.968;5.366;2023-04-15T03:28:01;9.65;;;4.28;;
26622;SDS011;14254;50.968;5.366;2023-04-15T03:30:28;9.70;;;4.30;;
26622;SDS011;14254;50.968;5.366;2023-04-15T03:32:53;8.73;;;4.18;;
26622;SDS011;14254;50.968;5.366;2023-04-15T03:35:19;9.38;;;4.30;;
26622;SDS011;14254;50.968;5.366;2023-04-15T03:37:45;13.02;;;3.78;;
26622;SDS011;14254;50.968;5.366;2023-04-15T03:40:11;9.02;;;3.97;;
26622;SDS011;14254;50.968;5.366;2023-04-15T03:42:37;13.80;;;4.05;;
26622;SDS011;14254;50.968;5.366;2023-04-15T03:45:02;9.35;;;4.38;;
26622;SDS011;14254;50.968;5.366;2023-04-15T03:47:28;8.15;;;4.03;;
26622;SDS011;14254;50.968;5.366;2023-04-15T03:49:54;7.00;;;3.78;;
26622;SDS011;14254;50.968;5.366;2023-04-15T03:52:20;7.18;;;3.65;;
26622;SDS011;14254;50.968;5.366;2023-04-15T03:54:45;6.85;;;3.80;;
26622;SDS011;14254;50.968;5.366;2023-04-15T03:57:11;7.07;;;4.00;;
26622;SDS011;14254;50.968;5.366;2023-04-15T03:59:37;9.38;;;4.28;;
26622;SDS011;14254;50.968;5.366;2023-04-15T04:02:03;5.95;;;3.70;;
26622;SDS011;14254;50.968;5.366;2023-04-15T04:04:28;6.45;;;3.72;;
26622;SDS011;14254;50.968;5.366;2023-04-15T04:06:54;6.78;;;3.83;;
26622;SDS011;14254;50.968;5.366;2023-04-15T04:09:20;7.82;;;4.65;;
26622;SDS011;14254;50.968;5.366;2023-04-15T04:11:45;8.38;;;4.13;;
26622;SDS011;14254;50.968;5.366;2023-04-15T04:14:11;5.97;;;4.20;;
26622;SDS011;14254;50.968;5.366;2023-04-15T04:16:37;11.30;;;4.70;;
26622;SDS011;14254;50.968;5.366;2023-04-15T04:19:02;7.18;;;4.22;;
26622;SDS011;14254;50.968;5.366;2023-04-15T04:21:28;9.57;;;3.78;;
26622;SDS011;14254;50.968;5.366;2023-04-15T04:23:54;10.05;;;4.28;;
26622;SDS011;14254;50.968;5.366;2023-04-15T04:26:20;7.85;;;4.15;;
26622;SDS011;14254;50.968;5.366;2023-04-15T04:28:46;11.40;;;4.03;;
26622;SDS011;14254;50.968;5.366;2023-04-15T04:31:12;7.97;;;4.35;;
26622;SDS011;14254;50.968;5.366;2023-04-15T04:33:38;8.48;;;4.22;;
26622;SDS011;14254;50.968;5.366;2023-04-15T04:36:04;8.70;;;4.32;;
26622;SDS011;14254;50.968;5.366;2023-04-15T04:38:30;7.28;;;3.90;;
26622;SDS011;14254;50.968;5.366;2023-04-15T04:40:56;9.70;;;4.70;;
26622;SDS011;14254;50.968;5.366;2023-04-15T04:43:21;9.18;;;4.68;;
26622;SDS011;14254;50.968;5.366;2023-04-15T04:45:47;13.10;;;5.03;;
26622;SDS011;14254;50.968;5.366;2023-04-15T04:48:13;7.20;;;4.45;;
26622;SDS011;14254;50.968;5.366;2023-04-15T04:50:38;10.43;;;4.65;;
26622;SDS011;14254;50.968;5.366;2023-04-15T04:53:04;10.90;;;4.50;;
26622;SDS011;14254;50.968;5.366;2023-04-15T04:55:30;9.13;;;4.38;;
26622;SDS011;14254;50.968;5.366;2023-04-15T04:57:56;10.07;;;4.85;;
26622;SDS011;14254;50.968;5.366;2023-04-15T05:00:21;13.85;;;5.38;;
26622;SDS011;14254;50.968;5.366;2023-04-15T05:02:47;12.48;;;5.00;;
26622;SDS011;14254;50.968;5.366;2023-04-15T05:05:13;9.13;;;5.13;;
26622;SDS011;14254;50.968;5.366;2023-04-15T05:07:39;13.43;;;5.32;;
26622;SDS011;14254;50.968;5.366;2023-04-15T05:10:04;8.05;;;4.43;;
26622;SDS011;14254;50.968;5.366;2023-04-15T05:12:31;8.90;;;5.15;;
26622;SDS011;14254;50.968;5.366;2023-04-15T05:14:56;13.98;;;5.40;;
26622;SDS011;14254;50.968;5.366;2023-04-15T05:17:22;8.65;;;4.72;;
26622;SDS011;14254;50.968;5.366;2023-04-15T05:19:48;10.18;;;4.57;;
26622;SDS011;14254;50.968;5.366;2023-04-15T05:22:14;10.90;;;5.00;;
26622;SDS011;14254;50.968;5.366;2023-04-15T05:24:40;15.48;;;6.13;;
26622;SDS011;14254;50.968;5.366;2023-04-15T05:27:05;11.45;;;5.38;;
26622;SDS011;14254;50.968;5.366;2023-04-15T05:29:32;13.38;;;5.43;;
26622;SDS011;14254;50.968;5.366;2023-04-15T05:31:58;11.63;;;5.10;;
26622;SDS011;14254;50.968;5.366;2023-04-15T05:34:24;15.07;;;5.38;;
26622;SDS011;14254;50.968;5.366;2023-04-15T05:36:50;14.52;;;5.43;;
26622;SDS011;14254;50.968;5.366;2023-04-15T05:39:16;10.65;;;5.40;;
26622;SDS011;14254;50.968;5.366;2023-04-15T05:41:42;17.38;;;6.43;;
26622;SDS011;14254;50.968;5.366;2023-04-15T05:44:08;15.57;;;6.75;;
26622;SDS011;14254;50.968;5.366;2023-04-15T05:46:34;12.63;;;5.93;;
26622;SDS011;14254;50.968;5.366;2023-04-15T05:49:00;13.13;;;5.95;;
26622;SDS011;14254;50.968;5.366;2023-04-15T05:51:25;16.30;;;6.60;;
26622;SDS011;14254;50.968;5.366;2023-04-15T05:53:51;13.70;;;5.45;;
26622;SDS011;14254;50.968;5.366;2023-04-15T05:56:17;13.60;;;7.88;;
26622;SDS011;14254;50.968;5.366;2023-04-15T05:58:44;16.80;;;5.63;;
26622;SDS011;14254;50.968;5.366;2023-04-15T06:01:10;19.30;;;6.38;;
26622;SDS011;14254;50.968;5.366;2023-04-15T06:03:36;14.10;;;6.30;;
26622;SDS011;14254;50.968;5.366;2023-04-15T06:06:02;17.73;;;8.60;;
26622;SDS011;14254;50.968;5.366;2023-04-15T06:08:28;19.48;;;7.05;;
26622;SDS011;14254;50.968;5.366;2023-04-15T06:10:54;14.30;;;7.80;;
26622;SDS011;14254;50.968;5.366;2023-04-15T06:13:20;20.73;;;8.48;;
26622;SDS011;14254;50.968;5.366;2023-04-15T06:15:45;18.35;;;7.20;;
26622;SDS011;14254;50.968;5.366;2023-04-15T06:18:11;16.60;;;6.88;;
26622;SDS011;14254;50.968;5.366;2023-04-15T06:20:37;17.75;;;8.13;;
26622;SDS011;14254;50.968;5.366;2023-04-15T06:23:03;18.83;;;7.07;;
26622;SDS011;14254;50.968;5.366;2023-04-15T06:25:28;20.60;;;7.22;;
26622;SDS011;14254;50.968;5.366;2023-04-15T06:27:54;17.98;;;7.82;;
26622;SDS011;14254;50.968;5.366;2023-04-15T06:30:20;13.07;;;6.63;;
26622;SDS011;14254;50.968;5.366;2023-04-15T06:32:45;13.80;;;7.35;;
26622;SDS011;14254;50.968;5.366;2023-04-15T06:35:11;15.98;;;7.20;;
26622;SDS011;14254;50.968;5.366;2023-04-15T06:37:37;18.20;;;7.82;;
26622;SDS011;14254;50.968;5.366;2023-04-15T06:40:02;12.73;;;7.05;;
26622;SDS011;14254;50.968;5.366;2023-04-15T06:42:29;29.27;;;7.15;;
26622;SDS011;14254;50.968;5.366;2023-04-15T06:44:55;13.77;;;7.38;;
26622;SDS011;14254;50.968;5.366;2023-04-15T06:47:21;16.73;;;8.57;;
26622;SDS011;14254;50.968;5.366;2023-04-15T06:49:46;15.15;;;8.00;;
26622;SDS011;14254;50.968;5.366;2023-04-15T06:52:12;15.65;;;7.88;;
26622;SDS011;14254;50.968;5.366;2023-04-15T06:54:38;15.93;;;8.65;;
26622;SDS011;14254;50.968;5.366;2023-04-15T06:57:04;19.65;;;9.00;;
26622;SDS011;14254;50.968;5.366;2023-04-15T06:59:31;18.73;;;9.35;;
26622;SDS011;14254;50.968;5.366;2023-04-15T07:01:57;17.33;;;8.48;;
26622;SDS011;14254;50.968;5.366;2023-04-15T07:04:22;15.80;;;7.50;;
26622;SDS011;14254;50.968;5.366;2023-04-15T07:06:48;17.05;;;8.18;;
26622;SDS011;14254;50.968;5.366;2023-04-15T07:09:14;14.93;;;8.63;;
26622;SDS011;14254;50.968;5.366;2023-04-15T07:11:39;15.88;;;8.02;;
26622;SDS011;14254;50.968;5.366;2023-04-15T07:14:05;14.50;;;8.27;;
26622;SDS011;14254;50.968;5.366;2023-04-15T07:16:31;14.73;;;8.20;;
26622;SDS011;14254;50.968;5.366;2023-04-15T07:18:57;17.65;;;8.80;;
26622;SDS011;14254;50.968;5.366;2023-04-15T07:21:23;15.05;;;7.22;;
26622;SDS011;14254;50.968;5.366;2023-04-15T07:23:49;13.32;;;8.70;;
26622;SDS011;14254;50.968;5.366;2023-04-15T07:26:16;14.77;;;7.30;;
26622;SDS011;14254;50.968;5.366;2023-04-15T07:28:41;13.63;;;7.25;;
26622;SDS011;14254;50.968;5.366;2023-04-15T07:31:07;15.25;;;7.55;;
26622;SDS011;14254;50.968;5.366;2023-04-15T07:33:33;12.85;;;7.15;;
26622;SDS011;14254;50.968;5.366;2023-04-15T07:35:59;19.33;;;8.10;;
26622;SDS011;14254;50.968;5.366;2023-04-15T07:38:25;16.70;;;8.52;;
26622;SDS011;14254;50.968;5.366;2023-04-15T07:40:50;11.38;;;7.38;;
26622;SDS011;14254;50.968;5.366;2023-04-15T07:43:16;12.40;;;7.15;;
26622;SDS011;14254;50.968;5.366;2023-04-15T07:45:42;17.33;;;7.30;;
26622;SDS011;14254;50.968;5.366;2023-04-15T07:48:08;17.98;;;8.57;;
26622;SDS011;14254;50.968;5.366;2023-04-15T07:50:34;14.02;;;8.45;;
26622;SDS011;14254;50.968;5.366;2023-04-15T07:52:59;13.38;;;7.03;;
26622;SDS011;14254;50.968;5.366;2023-04-15T07:55:25;15.30;;;9.90;;
26622;SDS011;14254;50.968;5.366;2023-04-15T07:57:51;16.10;;;9.65;;
26622;SDS011;14254;50.968;5.366;2023-04-15T08:00:16;17.58;;;10.20;;
26622;SDS011;14254;50.968;5.366;2023-04-15T08:02:42;14.77;;;8.65;;
26622;SDS011;14254;50.968;5.366;2023-04-15T08:05:12;16.42;;;10.55;;
26622;SDS011;14254;50.968;5.366;2023-04-15T08:07:38;21.55;;;11.88;;
26622;SDS011;14254;50.968;5.366;2023-04-15T08:10:04;18.13;;;11.20;;
26622;SDS011;14254;50.968;5.366;2023-04-15T08:12:30;18.25;;;10.63;;
26622;SDS011;14254;50.968;5.366;2023-04-15T08:14:56;18.88;;;10.73;;
26622;SDS011;14254;50.968;5.366;2023-04-15T08:17:22;21.70;;;12.70;;
26622;SDS011;14254;50.968;5.366;2023-04-15T08:19:48;18.83;;;11.82;;
26622;SDS011;14254;50.968;5.366;2023-04-15T08:22:14;23.88;;;11.82;;
26622;SDS011;14254;50.968;5.366;2023-04-15T08:24:40;17.52;;;11.10;;
26622;SDS011;14254;50.968;5.366;2023-04-15T08:27:06;13.20;;;8.95;;
26622;SDS011;14254;50.968;5.366;2023-04-15T08:29:32;15.60;;;10.50;;
26622;SDS011;14254;50.968;5.366;2023-04-15T08:31:58;18.85;;;10.70;;
26622;SDS011;14254;50.968;5.366;2023-04-15T08:34:28;15.30;;;11.25;;
26622;SDS011;14254;50.968;5.366;2023-04-15T08:36:54;17.00;;;10.60;;
26622;SDS011;14254;50.968;5.366;2023-04-15T08:39:20;14.65;;;9.90;;
26622;SDS011;14254;50.968;5.366;2023-04-15T08:41:46;23.00;;;11.20;;
26622;SDS011;14254;50.968;5.366;2023-04-15T08:44:18;15.38;;;10.77;;
26622;SDS011;14254;50.968;5.366;2023-04-15T08:46:45;15.55;;;9.20;;
26622;SDS011;14254;50.968;5.366;2023-04-15T08:49:12;16.33;;;9.23;;
26622;SDS011;14254;50.968;5.366;2023-04-15T08:51:38;17.23;;;9.88;;
26622;SDS011;14254;50.968;5.366;2023-04-15T08:54:04;15.75;;;7.20;;
26622;SDS011;14254;50.968;5.366;2023-04-15T08:56:31;11.98;;;8.05;;
26622;SDS011;14254;50.968;5.366;2023-04-15T08:58:57;16.50;;;8.93;;
26622;SDS011;14254;50.968;5.366;2023-04-15T09:01:24;15.10;;;9.40;;
26622;SDS011;14254;50.968;5.366;2023-04-15T09:03:50;12.23;;;8.30;;
26622;SDS011;14254;50.968;5.366;2023-04-15T09:06:19;11.23;;;6.47;;
26622;SDS011;14254;50.968;5.366;2023-04-15T09:08:45;12.95;;;7.90;;
26622;SDS011;14254;50.968;5.366;2023-04-15T09:11:12;11.65;;;8.45;;
26622;SDS011;14254;50.968;5.366;2023-04-15T09:13:38;13.27;;;9.35;;
26622;SDS011;14254;50.968;5.366;2023-04-15T09:16:04;15.68;;;9.60;;
26622;SDS011;14254;50.968;5.366;2023-04-15T09:18:31;12.10;;;9.13;;
26622;SDS011;14254;50.968;5.366;2023-04-15T09:21:05;15.27;;;9.45;;
26622;SDS011;14254;50.968;5.366;2023-04-15T09:23:33;15.40;;;8.73;;
26622;SDS011;14254;50.968;5.366;2023-04-15T09:26:00;11.20;;;6.40;;
26622;SDS011;14254;50.968;5.366;2023-04-15T09:28:26;10.98;;;8.48;;
26622;SDS011;14254;50.968;5.366;2023-04-15T09:30:59;16.25;;;8.50;;
26622;SDS011;14254;50.968;5.366;2023-04-15T09:33:27;8.70;;;6.47;;
26622;SDS011;14254;50.968;5.366;2023-04-15T09:35:55;12.70;;;8.75;;
26622;SDS011;14254;50.968;5.366;2023-04-15T09:38:22;13.68;;;8.88;;
26622;SDS011;14254;50.968;5.366;2023-04-15T09:40:48;13.48;;;9.38;;
26622;SDS011;14254;50.968;5.366;2023-04-15T09:43:14;8.48;;;4.50;;
26622;SDS011;14254;50.968;5.366;2023-04-15T09:45:51;12.32;;;6.97;;
26622;SDS011;14254;50.968;5.366;2023-04-15T09:48:21;10.02;;;7.50;;
26622;SDS011;14254;50.968;5.366;2023-04-15T09:50:50;10.77;;;7.10;;
26622;SDS011;14254;50.968;5.366;2023-04-15T09:53:21;9.65;;;6.20;;
26622;SDS011;14254;50.968;5.366;2023-04-15T09:55:52;8.25;;;6.18;;
26622;SDS011;14254;50.968;5.366;2023-04-15T09:58:23;9.88;;;6.80;;
26622;SDS011;14254;50.968;5.366;2023-04-15T10:00:50;8.30;;;4.68;;
26622;SDS011;14254;50.968;5.366;2023-04-15T10:03:27;8.85;;;5.32;;
26622;SDS011;14254;50.968;5.366;2023-04-15T10:05:59;10.43;;;5.05;;
26622;SDS011;14254;50.968;5.366;2023-04-15T10:08:29;7.72;;;4.82;;
26622;SDS011;14254;50.968;5.366;2023-04-15T10:10:57;7.45;;;4.60;;
26622;SDS011;14254;50.968;5.366;2023-04-15T10:13:23;10.65;;;5.05;;
26622;SDS011;14254;50.968;5.366;2023-04-15T10:15:59;5.50;;;3.65;;
26622;SDS011;14254;50.968;5.366;2023-04-15T10:18:30;4.80;;;3.65;;
26622;SDS011;14254;50.968;5.366;2023-04-15T10:20:59;3.63;;;2.58;;
26622;SDS011;14254;50.968;5.366;2023-04-15T10:23:25;3.30;;;2.65;;
26622;SDS011;14254;50.968;5.366;2023-04-15T10:25:52;4.68;;;2.83;;
26622;SDS011;14254;50.968;5.366;2023-04-15T10:28:19;8.13;;;5.47;;
26622;SDS011;14254;50.968;5.366;2023-04-15T10:30:47;6.05;;;3.55;;
26622;SDS011;14254;50.968;5.366;2023-04-15T10:33:14;6.90;;;3.22;;
26622;SDS011;14254;50.968;5.366;2023-04-15T10:35:42;6.25;;;3.97;;
26622;SDS011;14254;50.968;5.366;2023-04-15T10:46:22;5.90;;;4.13;;
26622;SDS011;14254;50.968;5.366;2023-04-15T10:48:59;8.10;;;4.97;;
26622;SDS011;14254;50.968;5.366;2023-04-15T10:51:36;8.18;;;5.10;;
26622;SDS011;14254;50.968;5.366;2023-04-15T10:54:07;8.98;;;5.50;;
26622;SDS011;14254;50.968;5.366;2023-04-15T10:56:39;12.45;;;5.68;;
26622;SDS011;14254;50.968;5.366;2023-04-15T10:59:09;11.32;;;4.95;;
26622;SDS011;14254;50.968;5.366;2023-04-15T11:01:50;8.38;;;5.00;;
26622;SDS011;14254;50.968;5.366;2023-04-15T11:04:53;6.63;;;4.45;;
26622;SDS011;14254;50.968;5.366;2023-04-15T11:08:05;5.95;;;5.25;;
26622;SDS011;14254;50.968;5.366;2023-04-15T11:12:50;6.10;;;3.75;;
26622;SDS011;14254;50.968;5.366;2023-04-15T11:18:11;5.65;;;4.53;;
26622;SDS011;14254;50.968;5.366;2023-04-15T11:20:51;5.68;;;4.43;;
26622;SDS011;14254;50.968;5.366;2023-04-15T11:23:41;5.95;;;5.00;;
26622;SDS011;14254;50.968;5.366;2023-04-15T11:26:11;5.03;;;3.60;;
26622;SDS011;14254;50.968;5.366;2023-04-15T11:28:37;4.72;;;3.17;;
26622;SDS011;14254;50.968;5.366;2023-04-15T11:31:14;3.13;;;2.47;;
26622;SDS011;14254;50.968;5.366;2023-04-15T11:34:00;6.93;;;3.90;;
26622;SDS011;14254;50.968;5.366;2023-04-15T11:36:27;4.03;;;3.13;;
26622;SDS011;14254;50.968;5.366;2023-04-15T11:38:56;4.43;;;3.22;;
26622;SDS011;14254;50.968;5.366;2023-04-15T11:41:24;6.55;;;2.92;;
26622;SDS011;14254;50.968;5.366;2023-04-15T11:43:50;3.55;;;3.00;;
26622;SDS011;14254;50.968;5.366;2023-04-15T11:46:16;3.58;;;2.10;;
26622;SDS011;14254;50.968;5.366;2023-04-15T11:48:42;2.33;;;2.13;;
26622;SDS011;14254;50.968;5.366;2023-04-15T11:51:09;3.40;;;2.10;;
26622;SDS011;14254;50.968;5.366;2023-04-15T11:56:10;4.03;;;2.25;;
26622;SDS011;14254;50.968;5.366;2023-04-15T11:58:45;4.30;;;2.55;;
26622;SDS011;14254;50.968;5.366;2023-04-15T12:01:11;7.13;;;3.38;;
26622;SDS011;14254;50.968;5.366;2023-04-15T12:03:41;3.05;;;2.20;;
26622;SDS011;14254;50.968;5.366;2023-04-15T12:06:12;2.47;;;2.20;;
26622;SDS011;14254;50.968;5.366;2023-04-15T12:14:19;2.90;;;2.10;;
26622;SDS011;14254;50.968;5.366;2023-04-15T12:17:02;3.30;;;2.65;;
26622;SDS011;14254;50.968;5.366;2023-04-15T12:19:35;4.05;;;2.80;;
26622;SDS011;14254;50.968;5.366;2023-04-15T12:22:11;3.97;;;3.03;;
26622;SDS011;14254;50.968;5.366;2023-04-15T12:24:38;4.32;;;3.58;;
26622;SDS011;14254;50.968;5.366;2023-04-15T12:27:05;4.53;;;3.47;;
26622;SDS011;14254;50.968;5.366;2023-04-15T12:29:35;5.35;;;3.90;;
26622;SDS011;14254;50.968;5.366;2023-04-15T12:32:14;3.00;;;2.22;;
26622;SDS011;14254;50.968;5.366;2023-04-15T12:34:42;3.28;;;2.58;;
26622;SDS011;14254;50.968;5.366;2023-04-15T12:37:15;3.03;;;1.88;;
26622;SDS011;14254;50.968;5.366;2023-04-15T12:39:42;2.78;;;1.65;;
26622;SDS011;14254;50.968;5.366;2023-04-15T12:42:09;3.42;;;1.73;;
26622;SDS011;14254;50.968;5.366;2023-04-15T12:44:36;2.75;;;1.25;;
26622;SDS011;14254;50.968;5.366;2023-04-15T12:47:03;1.58;;;1.40;;
26622;SDS011;14254;50.968;5.366;2023-04-15T12:49:29;1.70;;;1.52;;
26622;SDS011;14254;50.968;5.366;2023-04-15T12:51:56;6.40;;;2.45;;
26622;SDS011;14254;50.968;5.366;2023-04-15T12:54:26;6.60;;;1.83;;
26622;SDS011;14254;50.968;5.366;2023-04-15T12:56:52;1.67;;;1.33;;
26622;SDS011;14254;50.968;5.366;2023-04-15T12:59:19;2.22;;;1.50;;
26622;SDS011;14254;50.968;5.366;2023-04-15T13:01:46;1.50;;;1.33;;
26622;SDS011;14254;50.968;5.366;2023-04-15T13:04:12;2.80;;;1.80;;
26622;SDS011;14254;50.968;5.366;2023-04-15T13:06:38;2.60;;;1.60;;
26622;SDS011;14254;50.968;5.366;2023-04-15T13:09:04;2.60;;;1.60;;
26622;SDS011;14254;50.968;5.366;2023-04-15T13:11:30;3.35;;;2.55;;
26622;SDS011;14254;50.968;5.366;2023-04-15T13:13:57;3.58;;;2.20;;
26622;SDS011;14254;50.968;5.366;2023-04-15T13:16:30;4.90;;;2.33;;
26622;SDS011;14254;50.968;5.366;2023-04-15T13:18:57;3.35;;;2.50;;
26622;SDS011;14254;50.968;5.366;2023-04-15T13:21:24;3.55;;;2.00;;
26622;SDS011;14254;50.968;5.366;2023-04-15T13:23:51;2.50;;;2.30;;
26622;SDS011;14254;50.968;5.366;2023-04-15T13:26:17;3.97;;;1.95;;
26622;SDS011;14254;50.968;5.366;2023-04-15T13:28:43;2.25;;;1.58;;
26622;SDS011;14254;50.968;5.366;2023-04-15T13:31:09;2.67;;;1.80;;
26622;SDS011;14254;50.968;5.366;2023-04-15T13:33:35;2.47;;;1.92;;
26622;SDS011;14254;50.968;5.366;2023-04-15T13:36:01;2.22;;;2.03;;
26622;SDS011;14254;50.968;5.366;2023-04-15T13:38:27;2.58;;;2.00;;
26622;SDS011;14254;50.968;5.366;2023-04-15T13:40:52;2.50;;;1.90;;
26622;SDS011;14254;50.968;5.366;2023-04-15T13:43:18;2.85;;;1.83;;
26622;SDS011;14254;50.968;5.366;2023-04-15T13:45:45;5.40;;;2.33;;
26622;SDS011;14254;50.968;5.366;2023-04-15T13:48:11;3.85;;;1.77;;
26622;SDS011;14254;50.968;5.366;2023-04-15T13:50:37;3.42;;;2.28;;
26622;SDS011;14254;50.968;5.366;2023-04-15T13:53:02;2.22;;;2.03;;
26622;SDS011;14254;50.968;5.366;2023-04-15T13:55:28;2.28;;;2.00;;
26622;SDS011;14254;50.968;5.366;2023-04-15T13:57:54;3.08;;;2.42;;
26622;SDS011;14254;50.968;5.366;2023-04-15T14:00:20;3.33;;;2.00;;
26622;SDS011;14254;50.968;5.366;2023-04-15T14:02:46;3.30;;;1.88;;
26622;SDS011;14254;50.968;5.366;2023-04-15T14:05:12;3.42;;;2.15;;
26622;SDS011;14254;50.968;5.366;2023-04-15T14:07:38;5.35;;;2.53;;
26622;SDS011;14254;50.968;5.366;2023-04-15T14:10:03;2.20;;;1.98;;
26622;SDS011;14254;50.968;5.366;2023-04-15T14:12:29;2.13;;;1.92;;
26622;SDS011;14254;50.968;5.366;2023-04-15T14:14:55;3.85;;;2.50;;
26622;SDS011;14254;50.968;5.366;2023-04-15T14:17:21;2.13;;;1.85;;
26622;SDS011;14254;50.968;5.366;2023-04-15T14:19:47;4.60;;;2.25;;
26622;SDS011;14254;50.968;5.366;2023-04-15T14:22:12;3.45;;;2.20;;
26622;SDS011;14254;50.968;5.366;2023-04-15T14:24:38;2.63;;;1.80;;
26622;SDS011;14254;50.968;5.366;2023-04-15T14:27:04;2.85;;;1.67;;
26622;SDS011;14254;50.968;5.366;2023-04-15T14:29:32;2.00;;;1.83;;
26622;SDS011;14254;50.968;5.366;2023-04-15T14:31:58;2.08;;;1.80;;
26622;SDS011;14254;50.968;5.366;2023-04-15T14:34:23;3.38;;;1.63;;
26622;SDS011;14254;50.968;5.366;2023-04-15T14:36:50;2.75;;;1.90;;
26622;SDS011;14254;50.968;5.366;2023-04-15T14:39:17;4.47;;;2.15;;
26622;SDS011;14254;50.968;5.366;2023-04-15T14:41:43;3.97;;;2.58;;
26622;SDS011;14254;50.968;5.366;2023-04-15T14:44:10;4.22;;;2.08;;
26622;SDS011;14254;50.968;5.366;2023-04-15T14:46:36;3.83;;;1.80;;
26622;SDS011;14254;50.968;5.366;2023-04-15T14:49:02;3.05;;;1.92;;
26622;SDS011;14254;50.968;5.366;2023-04-15T14:51:29;1.90;;;1.70;;
26622;SDS011;14254;50.968;5.366;2023-04-15T14:53:55;2.42;;;1.75;;
26622;SDS011;14254;50.968;5.366;2023-04-15T14:56:21;2.67;;;2.00;;
26622;SDS011;14254;50.968;5.366;2023-04-15T14:58:47;2.13;;;1.50;;
26622;SDS011;14254;50.968;5.366;2023-04-15T15:01:13;2.60;;;1.80;;